Latest METARs, TAFs and NOTAMs for SKCG


---------------------------------------------------------------------------
	(OBSERVATIONS)
SKCG 160700Z VRB02KT 9000 NSC 26/24 A2979 RMK HZ=
SKCG 160600Z VRB02KT 9000 NSC 26/24 A2980 RMK HZ=
SKCG 160500Z 07003KT 030V200 8000 NSC 26/24 A2981 RMK HZ=
---------------------------------------------------------------------------
	(TERMINAL AREA FORECAST)
SKCG 160500Z 1606/1706 05005KT 9999 FEW017
    TEMPO 1606/1608 9000 -DZ SCT015TCU
    TEMPO 1610/1612 8000 VCFG SCT010
    TEMPO 1617/1622 33012KT
    PROB40 1619/1621 9000 SCT015TCU
    TX33/1618Z TN25/1611Z=
---------------------------------------------------------------------------
	(NOTAMS)


SKCG A0111/18 SID RNAV AKPE1G RWY 01 COMPLETELY WITHDRAWN REF.
    AMDT 53 - AD 2 - SID 6. 01 MAR 00:00 2018 UNTIL PERM. CREATED:
    17 JAN 15:54 2018

SKCG A1022/18 FIRE FIGHTING AND RESCUE CHG TO CAT 8. MAY 13 BTN
    1900-2100 MON, WED, FRI, BTN 0000-0015 TUE, THU, SAT BTN
    2100-2359 SUN BTN 0000-0015 AND 2100-2359, 13 MAY 19:00 2018
    UNTIL PERM. CREATED: 13 MAY 18:49 2018

SKCG A1298/18 MID TRANSMISSOMETER RWY 01 U/S. H24, 28 JUN 13:09
    2018 UNTIL 28 SEP 23:59 2018 ESTIMATED. CREATED: 28 JUN 13:14
    2018

SKCG A1374/18 RWY 01/19 CLSD. FM JUL 16 TIL JUL 31 BTN 0615-1015
    FM AUG 01 TIL AUG 31 BTN 0615-1015 FM SEP 01 TIL SEP 22 BTN
    0615-1015 OCT 16,17,18,19,20 BTN 0615-1015 NOV 14,15,16,17
    BTN 0615-1015 DEC 17,18,19,20 BTN 0610-1015 EXC JUL 20, 16
    JUL 06:15 2018 UNTIL 20 DEC 10:15 2018. CREATED: 09 JUL 16:57
    2018

SKCG A2997/09 FIRE FIGHTING AND RESCUE DOWNGRADED TO CAT 7 09
    DEC 20:30 UNTIL 10 DEC 23:00 ESTIMATED

---------------------------------------------------------------------------